Airfield :
LOGIN :

Register | Disclaimer

   EN    FR    IT 

 










Legend :    VFR   Marginal VFR   IFR   Intensive IFR   Very Intensive IFR
Visi :
Ceiling :
>= 8 km
>= 3000ft
5 to 8 km
1000 to 3000 ft
1500m to 5 km
500 to 1000 ft
800 to 1500m
200 to 500 ft
< 800m
< 200 ft
Symbols :   Thunderstorms  Fog  Heavy snow  Heavy precipitations  Wind > 20 kt
SIGMETs :     Misc.  Thunderstorms  Icing  Turbulence  Mountain Waves  Volcanic Ashes






- Airport Elevation : 33 ft
- IATA code : PLQ


EYPA - Palanga

CURRENT METAR :
  • 150320Z VRB01KT 0500 R19/1000VP2000U FG NSC 08/08 Q1017

EXPIRED METARs :
  • 150250Z 16002KT 1200 R19/0900VP2000N BR NSC 08/08 Q1017
  • 150220Z VRB02KT 1500 BR NSC 07/07 Q1017
  • 150150Z AUTO 14002KT 0800 R19/1600VP2000N NCD 08/08 Q1017
  • 150140Z AUTO 14002KT 3000 BR NCD 08/08 Q1017
  • 150125Z AUTO 11002KT 0800 R19/1500VP2000N NCD 08/08 Q1017
  • 150050Z AUTO 17001KT 0550 R19/0900VP2000D -UP NCD 09/09 Q1017
  • 150038Z AUTO VRB01KT 3400 -RA NCD 10/09 Q1017

TAF TAF EYPA
Valid from the 15 at 00:00 until the 16 at 00:00 UTC


142305Z 1500/1524 VRB03KT 5000 BR BKN005 BKN020
TEMPO 1500/1507 0350 FG VV002
BECMG 1507/1509 13015KT 9000 SCT030



MET'MAP, your aeronautical weather chart ! - Copyright ORBIFLY December 2007 - Disclaimer

ORBIFLY MET'MAP TEAM :

Programming & Development : Alexandra Zaïnal
Concept & Development : Baudouin d'Aumeries
Co-Development & Prog : Marc-Olivier Méhu
Technical & hardware support : Manuel Goepfert

Contact : metmap@orbifly.com




SOURCES & CREDITS :

   NOAA